sensor_id;sensor_type;location;lat;lon;timestamp;pressure;altitude;pressure_sealevel;temperature;humidity
8697;BME280;4385;48.848;8.924;2024-01-11T00:01:57;98285.50;;;13.40;100.00
8697;BME280;4385;48.848;8.924;2024-01-11T00:04:22;98273.63;;;13.39;100.00
8697;BME280;4385;48.848;8.924;2024-01-11T00:06:50;98282.94;;;13.37;100.00
8697;BME280;4385;48.848;8.924;2024-01-11T00:09:15;98279.53;;;13.37;100.00
8697;BME280;4385;48.848;8.924;2024-01-11T00:11:40;98272.78;;;13.36;100.00
8697;BME280;4385;48.848;8.924;2024-01-11T00:14:06;98280.41;;;13.39;100.00
8697;BME280;4385;48.848;8.924;2024-01-11T00:16:31;98277.09;;;13.44;100.00
8697;BME280;4385;48.848;8.924;2024-01-11T00:18:57;98286.38;;;13.47;100.00
8697;BME280;4385;48.848;8.924;2024-01-11T00:21:22;98283.91;;;13.50;100.00
8697;BME280;4385;48.848;8.924;2024-01-11T00:23:48;98285.66;;;13.54;100.00
8697;BME280;4385;48.848;8.924;2024-01-11T00:26:14;98290.75;;;13.54;100.00
8697;BME280;4385;48.848;8.924;2024-01-11T00:28:39;98289.03;;;13.55;100.00
8697;BME280;4385;48.848;8.924;2024-01-11T00:31:04;98292.41;;;13.54;100.00
8697;BME280;4385;48.848;8.924;2024-01-11T00:33:30;98294.94;;;13.52;100.00
8697;BME280;4385;48.848;8.924;2024-01-11T00:35:55;98292.41;;;13.52;100.00
8697;BME280;4385;48.848;8.924;2024-01-11T00:38:20;98294.84;;;13.49;100.00
8697;BME280;4385;48.848;8.924;2024-01-11T00:40:46;98299.88;;;13.46;100.00
8697;BME280;4385;48.848;8.924;2024-01-11T00:43:11;98295.66;;;13.43;100.00
8697;BME280;4385;48.848;8.924;2024-01-11T00:45:37;98301.53;;;13.44;100.00
8697;BME280;4385;48.848;8.924;2024-01-11T00:48:02;98291.41;;;13.44;100.00
8697;BME280;4385;48.848;8.924;2024-01-11T00:50:28;98297.31;;;13.41;100.00
8697;BME280;4385;48.848;8.924;2024-01-11T00:52:53;98292.22;;;13.40;100.00
8697;BME280;4385;48.848;8.924;2024-01-11T00:55:19;98286.31;;;13.41;100.00
8697;BME280;4385;48.848;8.924;2024-01-11T00:57:44;98285.47;;;13.37;100.00
8697;BME280;4385;48.848;8.924;2024-01-11T01:00:10;98291.25;;;13.28;100.00
8697;BME280;4385;48.848;8.924;2024-01-11T01:02:39;98302.16;;;13.24;100.00
8697;BME280;4385;48.848;8.924;2024-01-11T01:05:04;98306.31;;;13.19;100.00
8697;BME280;4385;48.848;8.924;2024-01-11T01:07:29;98307.13;;;13.16;100.00
8697;BME280;4385;48.848;8.924;2024-01-11T01:09:54;98310.50;;;13.14;100.00
8697;BME280;4385;48.848;8.924;2024-01-11T01:12:20;98300.34;;;13.12;100.00
8697;BME280;4385;48.848;8.924;2024-01-11T01:14:45;98298.63;;;13.11;100.00
8697;BME280;4385;48.848;8.924;2024-01-11T01:17:10;98301.19;;;13.13;100.00
8697;BME280;4385;48.848;8.924;2024-01-11T01:19:35;98297.88;;;13.17;100.00
8697;BME280;4385;48.848;8.924;2024-01-11T01:22:01;98293.72;;;13.24;100.00
8697;BME280;4385;48.848;8.924;2024-01-11T01:24:26;98289.59;;;13.30;100.00
8697;BME280;4385;48.848;8.924;2024-01-11T01:26:52;98289.63;;;13.33;100.00
8697;BME280;4385;48.848;8.924;2024-01-11T01:29:17;98297.22;;;13.35;100.00
8697;BME280;4385;48.848;8.924;2024-01-11T01:31:42;98298.09;;;13.36;100.00
8697;BME280;4385;48.848;8.924;2024-01-11T01:34:07;98294.72;;;13.37;100.00
8697;BME280;4385;48.848;8.924;2024-01-11T01:36:33;98305.72;;;13.37;100.00
8697;BME280;4385;48.848;8.924;2024-01-11T01:38:58;98304.84;;;13.37;100.00
8697;BME280;4385;48.848;8.924;2024-01-11T01:41:23;98306.53;;;13.36;100.00
8697;BME280;4385;48.848;8.924;2024-01-11T01:43:49;98307.38;;;13.35;100.00
8697;BME280;4385;48.848;8.924;2024-01-11T01:46:19;98318.34;;;13.36;100.00
8697;BME280;4385;48.848;8.924;2024-01-11T01:48:46;98317.47;;;13.33;100.00
8697;BME280;4385;48.848;8.924;2024-01-11T01:51:12;98317.50;;;13.35;100.00
8697;BME280;4385;48.848;8.924;2024-01-11T01:53:37;98322.53;;;13.33;100.00
8697;BME280;4385;48.848;8.924;2024-01-11T01:56:03;98329.22;;;13.30;100.00
8697;BME280;4385;48.848;8.924;2024-01-11T01:58:29;98326.69;;;13.28;100.00
8697;BME280;4385;48.848;8.924;2024-01-11T02:00:54;98326.69;;;13.28;100.00
8697;BME280;4385;48.848;8.924;2024-01-11T02:03:20;98326.69;;;13.28;100.00
8697;BME280;4385;48.848;8.924;2024-01-11T02:05:45;98320.78;;;13.28;100.00
8697;BME280;4385;48.848;8.924;2024-01-11T02:08:15;98322.47;;;13.27;100.00
8697;BME280;4385;48.848;8.924;2024-01-11T02:10:41;98318.19;;;13.23;100.00
8697;BME280;4385;48.848;8.924;2024-01-11T02:13:07;98316.47;;;13.22;100.00
8697;BME280;4385;48.848;8.924;2024-01-11T02:15:32;98324.06;;;13.22;100.00
8697;BME280;4385;48.848;8.924;2024-01-11T02:17:58;98328.28;;;13.20;100.00
8697;BME280;4385;48.848;8.924;2024-01-11T02:20:23;98320.66;;;13.17;100.00
8697;BME280;4385;48.848;8.924;2024-01-11T02:22:53;98323.16;;;13.14;100.00
8697;BME280;4385;48.848;8.924;2024-01-11T02:25:21;98321.41;;;13.11;100.00
8697;BME280;4385;48.848;8.924;2024-01-11T02:27:50;98331.50;;;13.09;100.00
8697;BME280;4385;48.848;8.924;2024-01-11T02:30:15;98335.78;;;13.12;100.00
8697;BME280;4385;48.848;8.924;2024-01-11T02:32:45;98340.06;;;13.18;100.00
8697;BME280;4385;48.848;8.924;2024-01-11T02:35:15;98329.94;;;13.18;100.00
8697;BME280;4385;48.848;8.924;2024-01-11T02:37:40;98323.19;;;13.17;100.00
8697;BME280;4385;48.848;8.924;2024-01-11T02:40:07;98329.97;;;13.21;100.00
8697;BME280;4385;48.848;8.924;2024-01-11T02:42:33;98338.44;;;13.23;100.00
8697;BME280;4385;48.848;8.924;2024-01-11T02:44:58;98328.31;;;13.23;100.00
8697;BME280;4385;48.848;8.924;2024-01-11T02:47:24;98330.81;;;13.20;100.00
8697;BME280;4385;48.848;8.924;2024-01-11T02:49:49;98337.44;;;13.12;100.00
8697;BME280;4385;48.848;8.924;2024-01-11T02:52:15;98332.31;;;13.07;100.00
8697;BME280;4385;48.848;8.924;2024-01-11T02:54:40;98328.13;;;13.07;100.00
8697;BME280;4385;48.848;8.924;2024-01-11T02:57:05;98324.78;;;13.12;100.00
8697;BME280;4385;48.848;8.924;2024-01-11T02:59:30;98323.16;;;13.14;100.00
8697;BME280;4385;48.848;8.924;2024-01-11T03:01:56;98317.25;;;13.15;100.00
8697;BME280;4385;48.848;8.924;2024-01-11T03:04:21;98311.34;;;13.16;100.00
8697;BME280;4385;48.848;8.924;2024-01-11T03:06:47;98317.25;;;13.16;100.00
8697;BME280;4385;48.848;8.924;2024-01-11T03:09:12;98314.75;;;13.18;100.00
8697;BME280;4385;48.848;8.924;2024-01-11T03:11:37;98310.50;;;13.15;100.00
8697;BME280;4385;48.848;8.924;2024-01-11T03:14:03;98308.78;;;13.14;100.00
8697;BME280;4385;48.848;8.924;2024-01-11T03:16:28;98300.38;;;13.14;100.00
8697;BME280;4385;48.848;8.924;2024-01-11T03:18:53;98303.72;;;13.13;100.00
8697;BME280;4385;48.848;8.924;2024-01-11T03:21:19;98305.38;;;13.09;100.00
8697;BME280;4385;48.848;8.924;2024-01-11T03:23:44;98303.63;;;13.06;100.00
8697;BME280;4385;48.848;8.924;2024-01-11T03:26:16;98305.31;;;13.04;100.00
8697;BME280;4385;48.848;8.924;2024-01-11T03:28:42;98306.09;;;13.00;100.00
8697;BME280;4385;48.848;8.924;2024-01-11T03:31:09;98308.56;;;12.97;100.00
8697;BME280;4385;48.848;8.924;2024-01-11T03:33:34;98310.19;;;12.90;100.00
8697;BME280;4385;48.848;8.924;2024-01-11T03:35:59;98310.13;;;12.86;100.00
8697;BME280;4385;48.848;8.924;2024-01-11T03:38:25;98303.31;;;12.83;100.00
8697;BME280;4385;48.848;8.924;2024-01-11T03:40:50;98305.84;;;12.81;100.00
8697;BME280;4385;48.848;8.924;2024-01-11T03:43:17;98310.91;;;12.83;100.00
8697;BME280;4385;48.848;8.924;2024-01-11T03:45:43;98309.25;;;12.83;100.00
8697;BME280;4385;48.848;8.924;2024-01-11T03:48:08;98306.72;;;12.85;100.00
8697;BME280;4385;48.848;8.924;2024-01-11T03:50:33;98309.31;;;12.90;100.00
8697;BME280;4385;48.848;8.924;2024-01-11T03:52:59;98307.72;;;12.95;100.00
8697;BME280;4385;48.848;8.924;2024-01-11T03:55:24;98306.09;;;13.00;100.00
8697;BME280;4385;48.848;8.924;2024-01-11T03:57:50;98306.13;;;13.05;100.00
8697;BME280;4385;48.848;8.924;2024-01-11T04:00:16;98301.13;;;13.09;100.00
8697;BME280;4385;48.848;8.924;2024-01-11T04:02:41;98305.41;;;13.12;100.00
8697;BME280;4385;48.848;8.924;2024-01-11T04:05:07;98302.06;;;13.15;100.00
8697;BME280;4385;48.848;8.924;2024-01-11T04:07:32;98302.06;;;13.16;100.00
8697;BME280;4385;48.848;8.924;2024-01-11T04:09:57;98298.69;;;13.16;100.00
8697;BME280;4385;48.848;8.924;2024-01-11T04:12:23;98295.34;;;13.17;100.00
8697;BME280;4385;48.848;8.924;2024-01-11T04:14:48;98300.41;;;13.17;100.00
8697;BME280;4385;48.848;8.924;2024-01-11T04:17:13;98297.88;;;13.17;100.00
8697;BME280;4385;48.848;8.924;2024-01-11T04:19:39;98297.88;;;13.17;100.00
8697;BME280;4385;48.848;8.924;2024-01-11T04:22:04;98297.88;;;13.17;100.00
8697;BME280;4385;48.848;8.924;2024-01-11T04:24:29;98300.38;;;13.15;100.00
8697;BME280;4385;48.848;8.924;2024-01-11T04:26:55;98299.53;;;13.15;100.00
8697;BME280;4385;48.848;8.924;2024-01-11T04:29:20;98291.91;;;13.13;100.00
8697;BME280;4385;48.848;8.924;2024-01-11T04:31:45;98288.59;;;13.17;100.00
8697;BME280;4385;48.848;8.924;2024-01-11T04:34:10;98291.19;;;13.24;100.00
8697;BME280;4385;48.848;8.924;2024-01-11T04:36:39;98286.13;;;13.25;100.00
8697;BME280;4385;48.848;8.924;2024-01-11T04:39:04;98287.88;;;13.28;100.00
8697;BME280;4385;48.848;8.924;2024-01-11T04:41:31;98290.44;;;13.31;100.00
8697;BME280;4385;48.848;8.924;2024-01-11T04:43:56;98297.22;;;13.33;100.00
8697;BME280;4385;48.848;8.924;2024-01-11T04:46:23;98295.56;;;13.36;100.00
8697;BME280;4385;48.848;8.924;2024-01-11T04:48:49;98295.53;;;13.32;100.00
8697;BME280;4385;48.848;8.924;2024-01-11T04:51:15;98294.63;;;13.27;100.00
8697;BME280;4385;48.848;8.924;2024-01-11T04:53:42;98294.56;;;13.22;100.00
8697;BME280;4385;48.848;8.924;2024-01-11T04:56:08;98289.47;;;13.21;100.00
8697;BME280;4385;48.848;8.924;2024-01-11T04:58:34;98291.09;;;13.16;100.00
8697;BME280;4385;48.848;8.924;2024-01-11T05:01:00;98288.47;;;13.08;100.00
8697;BME280;4385;48.848;8.924;2024-01-11T05:03:25;98289.22;;;12.99;100.00
8697;BME280;4385;48.848;8.924;2024-01-11T05:05:51;98290.84;;;12.97;100.00
8697;BME280;4385;48.848;8.924;2024-01-11T05:08:16;98286.66;;;12.97;100.00
8697;BME280;4385;48.848;8.924;2024-01-11T05:10:41;98290.06;;;12.98;100.00
8697;BME280;4385;48.848;8.924;2024-01-11T05:13:07;98296.81;;;12.99;100.00
8697;BME280;4385;48.848;8.924;2024-01-11T05:15:34;98304.38;;;12.99;100.00
8697;BME280;4385;48.848;8.924;2024-01-11T05:17:59;98306.09;;;13.00;100.00
8697;BME280;4385;48.848;8.924;2024-01-11T05:20:25;98315.41;;;13.01;100.00
8697;BME280;4385;48.848;8.924;2024-01-11T05:22:50;98306.94;;;13.01;100.00
8697;BME280;4385;48.848;8.924;2024-01-11T05:25:15;98312.91;;;13.04;100.00
8697;BME280;4385;48.848;8.924;2024-01-11T05:27:40;98307.84;;;13.04;100.00
8697;BME280;4385;48.848;8.924;2024-01-11T05:30:06;98303.63;;;13.06;100.00
8697;BME280;4385;48.848;8.924;2024-01-11T05:32:32;98313.06;;;13.17;100.00
8697;BME280;4385;48.848;8.924;2024-01-11T05:34:57;98324.94;;;13.24;100.00
8697;BME280;4385;48.848;8.924;2024-01-11T05:37:22;98325.03;;;13.30;100.00
8697;BME280;4385;48.848;8.924;2024-01-11T05:39:47;98323.38;;;13.32;100.00
8697;BME280;4385;48.848;8.924;2024-01-11T05:42:13;98317.50;;;13.37;100.00
8697;BME280;4385;48.848;8.924;2024-01-11T05:44:38;98326.78;;;13.38;100.00
8697;BME280;4385;48.848;8.924;2024-01-11T05:47:03;98322.56;;;13.37;100.00
8697;BME280;4385;48.848;8.924;2024-01-11T05:49:29;98331.81;;;13.34;100.00
8697;BME280;4385;48.848;8.924;2024-01-11T05:51:54;98327.59;;;13.33;100.00
8697;BME280;4385;48.848;8.924;2024-01-11T05:54:20;98336.00;;;13.31;100.00
8697;BME280;4385;48.848;8.924;2024-01-11T05:56:45;98340.19;;;13.27;100.00
8697;BME280;4385;48.848;8.924;2024-01-11T05:59:10;98338.44;;;13.23;100.00
8697;BME280;4385;48.848;8.924;2024-01-11T06:01:40;98354.44;;;13.20;100.00
8697;BME280;4385;48.848;8.924;2024-01-11T06:04:06;98360.34;;;13.21;100.00
8697;BME280;4385;48.848;8.924;2024-01-11T06:06:31;98353.59;;;13.20;100.00
8697;BME280;4385;48.848;8.924;2024-01-11T06:08:57;98356.13;;;13.20;100.00
8697;BME280;4385;48.848;8.924;2024-01-11T06:11:22;98356.97;;;13.22;100.00
8697;BME280;4385;48.848;8.924;2024-01-11T06:13:47;98350.31;;;13.27;100.00
8697;BME280;4385;48.848;8.924;2024-01-11T06:16:12;98350.47;;;13.40;100.00
8697;BME280;4385;48.848;8.924;2024-01-11T06:18:38;98348.88;;;13.48;100.00
8697;BME280;4385;48.848;8.924;2024-01-11T06:21:03;98345.56;;;13.52;100.00
8697;BME280;4385;48.848;8.924;2024-01-11T06:23:29;98349.81;;;13.55;100.00
8697;BME280;4385;48.848;8.924;2024-01-11T06:25:54;98347.31;;;13.56;100.00
8697;BME280;4385;48.848;8.924;2024-01-11T06:28:19;98346.56;;;13.65;100.00
8697;BME280;4385;48.848;8.924;2024-01-11T06:30:44;98348.28;;;13.69;100.00
8697;BME280;4385;48.848;8.924;2024-01-11T06:33:10;98348.28;;;13.69;100.00
8697;BME280;4385;48.848;8.924;2024-01-11T06:35:35;98349.16;;;13.70;100.00
8697;BME280;4385;48.848;8.924;2024-01-11T06:38:00;98352.47;;;13.66;100.00
8697;BME280;4385;48.848;8.924;2024-01-11T06:40:26;98344.81;;;13.61;100.00
8697;BME280;4385;48.848;8.924;2024-01-11T06:42:51;98354.09;;;13.57;100.00
8697;BME280;4385;48.848;8.924;2024-01-11T06:45:17;98357.41;;;13.55;100.00
8697;BME280;4385;48.848;8.924;2024-01-11T06:47:42;98365.84;;;13.52;100.00
8697;BME280;4385;48.848;8.924;2024-01-11T06:50:07;98360.69;;;13.49;100.00
8697;BME280;4385;48.848;8.924;2024-01-11T06:52:33;98353.09;;;13.47;100.00
8697;BME280;4385;48.848;8.924;2024-01-11T06:54:58;98349.69;;;13.47;100.00
8697;BME280;4385;48.848;8.924;2024-01-11T06:57:24;98353.09;;;13.49;100.00
8697;BME280;4385;48.848;8.924;2024-01-11T06:59:49;98355.75;;;13.55;100.00
8697;BME280;4385;48.848;8.924;2024-01-11T07:02:15;98363.41;;;13.62;100.00
8697;BME280;4385;48.848;8.924;2024-01-11T07:04:44;98374.56;;;13.76;100.00
8697;BME280;4385;48.848;8.924;2024-01-11T07:07:10;98379.75;;;13.89;100.00
8697;BME280;4385;48.848;8.924;2024-01-11T07:09:35;98389.84;;;13.84;100.00
8697;BME280;4385;48.848;8.924;2024-01-11T07:12:00;98389.88;;;13.87;100.00
8697;BME280;4385;48.848;8.924;2024-01-11T07:14:27;98390.00;;;13.98;100.00
8697;BME280;4385;48.848;8.924;2024-01-11T07:16:52;98387.50;;;14.01;100.00
8697;BME280;4385;48.848;8.924;2024-01-11T07:19:17;98387.53;;;14.06;100.00
8697;BME280;4385;48.848;8.924;2024-01-11T07:21:43;98388.38;;;14.06;100.00
8697;BME280;4385;48.848;8.924;2024-01-11T07:24:08;98392.59;;;14.04;100.00
8697;BME280;4385;48.848;8.924;2024-01-11T07:26:33;98393.41;;;14.03;100.00
8697;BME280;4385;48.848;8.924;2024-01-11T07:28:59;98394.22;;;13.99;100.00
8697;BME280;4385;48.848;8.924;2024-01-11T07:31:25;98391.66;;;13.96;100.00
8697;BME280;4385;48.848;8.924;2024-01-11T07:33:50;98398.38;;;13.94;100.00
8697;BME280;4385;48.848;8.924;2024-01-11T07:36:16;98405.94;;;13.91;100.00
8697;BME280;4385;48.848;8.924;2024-01-11T07:38:41;98409.31;;;13.90;100.00
8697;BME280;4385;48.848;8.924;2024-01-11T07:41:06;98404.25;;;13.90;100.00
8697;BME280;4385;48.848;8.924;2024-01-11T07:43:31;98401.72;;;13.90;100.00
8697;BME280;4385;48.848;8.924;2024-01-11T07:46:00;98405.09;;;13.89;100.00
8697;BME280;4385;48.848;8.924;2024-01-11T07:48:25;98411.00;;;13.91;100.00
8697;BME280;4385;48.848;8.924;2024-01-11T07:50:51;98417.78;;;13.90;100.00
8697;BME280;4385;48.848;8.924;2024-01-11T07:53:16;98423.69;;;13.91;100.00
8697;BME280;4385;48.848;8.924;2024-01-11T07:55:42;98422.03;;;13.93;100.00
8697;BME280;4385;48.848;8.924;2024-01-11T07:58:07;98430.50;;;13.93;100.00
8697;BME280;4385;48.848;8.924;2024-01-11T08:00:33;98444.88;;;13.96;100.00
8697;BME280;4385;48.848;8.924;2024-01-11T08:02:59;98448.34;;;14.03;100.00
8697;BME280;4385;48.848;8.924;2024-01-11T08:05:24;98455.16;;;14.08;100.00
8697;BME280;4385;48.848;8.924;2024-01-11T08:07:50;98450.97;;;14.12;100.00
8697;BME280;4385;48.848;8.924;2024-01-11T08:10:15;98444.25;;;14.19;100.00
8697;BME280;4385;48.848;8.924;2024-01-11T08:12:40;98440.06;;;14.19;100.00
8697;BME280;4385;48.848;8.924;2024-01-11T08:15:06;98462.88;;;14.19;100.00
8697;BME280;4385;48.848;8.924;2024-01-11T08:17:31;98472.16;;;14.19;100.00
8697;BME280;4385;48.848;8.924;2024-01-11T08:19:56;98467.06;;;14.17;100.00
8697;BME280;4385;48.848;8.924;2024-01-11T08:22:22;98469.53;;;14.13;100.00
8697;BME280;4385;48.848;8.924;2024-01-11T08:24:48;98475.47;;;14.12;100.00
8697;BME280;4385;48.848;8.924;2024-01-11T08:27:13;98460.22;;;14.08;100.00
8697;BME280;4385;48.848;8.924;2024-01-11T08:29:42;98464.44;;;14.09;100.00
8697;BME280;4385;48.848;8.924;2024-01-11T08:32:07;98463.63;;;14.09;100.00
8697;BME280;4385;48.848;8.924;2024-01-11T08:34:33;98473.75;;;14.09;100.00
8697;BME280;4385;48.848;8.924;2024-01-11T08:36:58;98473.78;;;14.12;100.00
8697;BME280;4385;48.848;8.924;2024-01-11T08:39:23;98477.13;;;14.11;100.00
8697;BME280;4385;48.848;8.924;2024-01-11T08:41:48;98468.72;;;14.14;100.00
8697;BME280;4385;48.848;8.924;2024-01-11T08:44:14;98470.41;;;14.13;100.00
8697;BME280;4385;48.848;8.924;2024-01-11T08:46:39;98478.84;;;14.12;100.00
8697;BME280;4385;48.848;8.924;2024-01-11T08:49:05;98479.72;;;14.16;100.00
8697;BME280;4385;48.848;8.924;2024-01-11T08:51:30;98478.88;;;14.15;100.00
8697;BME280;4385;48.848;8.924;2024-01-11T08:53:57;98467.88;;;14.15;100.00
8697;BME280;4385;48.848;8.924;2024-01-11T08:56:22;98467.03;;;14.14;100.00
8697;BME280;4385;48.848;8.924;2024-01-11T08:58:48;98468.75;;;14.15;100.00
8697;BME280;4385;48.848;8.924;2024-01-11T09:01:14;98469.63;;;14.19;100.00
8697;BME280;4385;48.848;8.924;2024-01-11T09:03:39;98467.13;;;14.24;100.00
8697;BME280;4385;48.848;8.924;2024-01-11T09:06:04;98471.44;;;14.29;100.00
8697;BME280;4385;48.848;8.924;2024-01-11T09:08:30;98468.06;;;14.30;100.00
8697;BME280;4385;48.848;8.924;2024-01-11T09:10:56;98479.06;;;14.31;100.00
8697;BME280;4385;48.848;8.924;2024-01-11T09:13:23;98480.69;;;14.27;100.00
8697;BME280;4385;48.848;8.924;2024-01-11T09:15:49;98479.81;;;14.25;100.00
8697;BME280;4385;48.848;8.924;2024-01-11T09:18:14;98477.28;;;14.24;100.00
8697;BME280;4385;48.848;8.924;2024-01-11T09:20:41;98473.06;;;14.24;100.00
8697;BME280;4385;48.848;8.924;2024-01-11T09:23:06;98468.81;;;14.21;100.00
8697;BME280;4385;48.848;8.924;2024-01-11T09:25:32;98472.16;;;14.20;100.00
8697;BME280;4385;48.848;8.924;2024-01-11T09:27:57;98483.16;;;14.19;100.00
8697;BME280;4385;48.848;8.924;2024-01-11T09:30:22;98491.63;;;14.20;100.00
8697;BME280;4385;48.848;8.924;2024-01-11T09:32:48;98493.31;;;14.21;100.00
8697;BME280;4385;48.848;8.924;2024-01-11T09:35:14;98487.41;;;14.22;100.00
8697;BME280;4385;48.848;8.924;2024-01-11T09:37:39;98480.63;;;14.21;100.00
8697;BME280;4385;48.848;8.924;2024-01-11T09:40:05;98487.38;;;14.20;100.00
8697;BME280;4385;48.848;8.924;2024-01-11T09:42:35;98494.97;;;14.19;100.00
8697;BME280;4385;48.848;8.924;2024-01-11T09:45:01;98499.16;;;14.15;100.00
8697;BME280;4385;48.848;8.924;2024-01-11T09:47:28;98502.53;;;14.16;100.00
8697;BME280;4385;48.848;8.924;2024-01-11T09:49:54;98495.78;;;14.16;100.00
8697;BME280;4385;48.848;8.924;2024-01-11T09:52:22;98507.59;;;14.14;100.00
8697;BME280;4385;48.848;8.924;2024-01-11T09:54:50;98501.69;;;14.14;100.00
8697;BME280;4385;48.848;8.924;2024-01-11T09:57:22;98499.94;;;14.09;100.00
8697;BME280;4385;48.848;8.924;2024-01-11T09:59:50;98497.38;;;14.08;100.00
8697;BME280;4385;48.848;8.924;2024-01-11T10:02:18;98499.09;;;14.09;100.00
8697;BME280;4385;48.848;8.924;2024-01-11T10:04:46;98502.47;;;14.09;100.00
8697;BME280;4385;48.848;8.924;2024-01-11T10:07:12;98503.31;;;14.10;100.00
8697;BME280;4385;48.848;8.924;2024-01-11T10:09:38;98494.06;;;14.12;100.00
8697;BME280;4385;48.848;8.924;2024-01-11T10:12:03;98493.28;;;14.19;100.00
8697;BME280;4385;48.848;8.924;2024-01-11T10:14:30;98473.03;;;14.21;100.00
8697;BME280;4385;48.848;8.924;2024-01-11T10:16:56;98473.03;;;14.21;100.00
8697;BME280;4385;48.848;8.924;2024-01-11T10:19:21;98472.16;;;14.19;100.00
8697;BME280;4385;48.848;8.924;2024-01-11T10:21:47;98465.38;;;14.18;100.00
8697;BME280;4385;48.848;8.924;2024-01-11T10:24:18;98461.19;;;14.20;100.00
8697;BME280;4385;48.848;8.924;2024-01-11T10:26:43;98459.47;;;14.19;100.00
8697;BME280;4385;48.848;8.924;2024-01-11T10:29:08;98460.31;;;14.16;100.00
8697;BME280;4385;48.848;8.924;2024-01-11T10:31:36;98455.19;;;14.13;100.00
8697;BME280;4385;48.848;8.924;2024-01-11T10:34:01;98451.00;;;14.14;100.00
8697;BME280;4385;48.848;8.924;2024-01-11T10:36:30;98462.81;;;14.13;100.00
8697;BME280;4385;48.848;8.924;2024-01-11T10:38:56;98456.84;;;14.11;100.00
8697;BME280;4385;48.848;8.924;2024-01-11T10:41:22;98457.72;;;14.12;100.00
8697;BME280;4385;48.848;8.924;2024-01-11T10:43:48;98464.44;;;14.09;100.00
8697;BME280;4385;48.848;8.924;2024-01-11T10:46:15;98468.66;;;14.07;100.00
8697;BME280;4385;48.848;8.924;2024-01-11T10:48:43;98472.03;;;14.08;100.00
8697;BME280;4385;48.848;8.924;2024-01-11T10:51:09;98470.38;;;14.12;100.00
8697;BME280;4385;48.848;8.924;2024-01-11T10:53:47;98469.63;;;14.19;100.00
8697;BME280;4385;48.848;8.924;2024-01-11T10:56:14;98472.19;;;14.22;100.00
8697;BME280;4385;48.848;8.924;2024-01-11T10:58:44;98468.88;;;14.26;100.00
8697;BME280;4385;48.848;8.924;2024-01-11T11:01:10;98469.66;;;14.22;100.00
8697;BME280;4385;48.848;8.924;2024-01-11T11:03:37;98461.22;;;14.23;100.00
8697;BME280;4385;48.848;8.924;2024-01-11T11:06:04;98473.13;;;14.30;100.00
8697;BME280;4385;48.848;8.924;2024-01-11T11:08:31;98463.84;;;14.31;100.00
8697;BME280;4385;48.848;8.924;2024-01-11T11:10:57;98467.22;;;14.33;100.00
8697;BME280;4385;48.848;8.924;2024-01-11T11:13:23;98466.41;;;14.32;100.00
8697;BME280;4385;48.848;8.924;2024-01-11T11:15:49;98467.19;;;14.28;100.00
8697;BME280;4385;48.848;8.924;2024-01-11T11:18:15;98458.72;;;14.25;100.00
8697;BME280;4385;48.848;8.924;2024-01-11T11:20:42;98458.69;;;14.23;100.00
8697;BME280;4385;48.848;8.924;2024-01-11T11:23:08;98452.75;;;14.21;100.00
8697;BME280;4385;48.848;8.924;2024-01-11T11:25:39;98453.59;;;14.21;100.00
8697;BME280;4385;48.848;8.924;2024-01-11T11:28:06;98439.19;;;14.19;100.00
8697;BME280;4385;48.848;8.924;2024-01-11T11:30:33;98445.13;;;14.21;100.00
8697;BME280;4385;48.848;8.924;2024-01-11T11:33:08;98445.13;;;14.21;100.00
8697;BME280;4385;48.848;8.924;2024-01-11T11:35:33;98440.94;;;14.23;100.00
8697;BME280;4385;48.848;8.924;2024-01-11T11:37:58;98454.44;;;14.24;100.00
8697;BME280;4385;48.848;8.924;2024-01-11T11:40:40;98451.91;;;14.24;100.00
8697;BME280;4385;48.848;8.924;2024-01-11T11:43:10;98450.25;;;14.24;100.00
8697;BME280;4385;48.848;8.924;2024-01-11T11:45:35;98445.16;;;14.24;100.00
8697;BME280;4385;48.848;8.924;2024-01-11T11:48:02;98449.41;;;14.27;100.00
8697;BME280;4385;48.848;8.924;2024-01-11T11:50:47;98441.03;;;14.32;100.00
8697;BME280;4385;48.848;8.924;2024-01-11T11:53:12;98432.56;;;14.30;100.00
8697;BME280;4385;48.848;8.924;2024-01-11T11:55:38;98436.78;;;14.31;100.00
8697;BME280;4385;48.848;8.924;2024-01-11T11:58:03;98417.41;;;14.37;100.00
8697;BME280;4385;48.848;8.924;2024-01-11T12:00:29;98424.19;;;14.41;100.00
8697;BME280;4385;48.848;8.924;2024-01-11T12:02:59;98430.13;;;14.41;100.00
8697;BME280;4385;48.848;8.924;2024-01-11T12:05:26;98420.84;;;14.42;100.00
8697;BME280;4385;48.848;8.924;2024-01-11T12:07:52;98416.59;;;14.41;100.00
8697;BME280;4385;48.848;8.924;2024-01-11T12:10:19;98409.78;;;14.37;100.00
8697;BME280;4385;48.848;8.924;2024-01-11T12:12:44;98411.44;;;14.34;100.00
8697;BME280;4385;48.848;8.924;2024-01-11T12:15:09;98396.22;;;14.31;100.00
8697;BME280;4385;48.848;8.924;2024-01-11T12:17:36;98394.50;;;14.29;100.00
8697;BME280;4385;48.848;8.924;2024-01-11T12:20:04;98406.31;;;14.28;100.00
8697;BME280;4385;48.848;8.924;2024-01-11T12:22:30;98402.94;;;14.26;100.00
8697;BME280;4385;48.848;8.924;2024-01-11T12:24:56;98397.00;;;14.26;100.00
8697;BME280;4385;48.848;8.924;2024-01-11T12:27:21;98404.63;;;14.26;100.00
8697;BME280;4385;48.848;8.924;2024-01-11T12:29:46;98405.47;;;14.26;100.00
8697;BME280;4385;48.848;8.924;2024-01-11T12:32:12;98402.09;;;14.27;100.00
8697;BME280;4385;48.848;8.924;2024-01-11T12:34:38;98400.38;;;14.23;100.00
8697;BME280;4385;48.848;8.924;2024-01-11T12:37:05;98400.38;;;14.23;100.00
8697;BME280;4385;48.848;8.924;2024-01-11T12:39:30;98402.06;;;14.24;100.00
8697;BME280;4385;48.848;8.924;2024-01-11T12:41:56;98392.78;;;14.23;100.00
8697;BME280;4385;48.848;8.924;2024-01-11T12:44:23;98403.72;;;14.22;100.00
8697;BME280;4385;48.848;8.924;2024-01-11T12:46:49;98406.28;;;14.24;100.00
8697;BME280;4385;48.848;8.924;2024-01-11T12:49:15;98399.53;;;14.24;100.00
8697;BME280;4385;48.848;8.924;2024-01-11T12:51:41;98397.88;;;14.25;100.00
8697;BME280;4385;48.848;8.924;2024-01-11T12:54:11;98397.03;;;14.27;100.00
8697;BME280;4385;48.848;8.924;2024-01-11T12:56:41;98395.34;;;14.26;100.00
8697;BME280;4385;48.848;8.924;2024-01-11T12:59:08;98391.94;;;14.26;100.00
8697;BME280;4385;48.848;8.924;2024-01-11T13:01:43;98383.47;;;14.25;100.00
8697;BME280;4385;48.848;8.924;2024-01-11T13:04:09;98381.78;;;14.23;100.00